Airport ICAO


15:03 UTC

15°C

Broken clouds


An affordable passengers' Moving Map for your aircraft. Made for the iPad and the iPhone
More information here

LFPT Cormeilles En Vexin


Pontoise FRANCE   VFR


METAR LFPT 231430Z AUTO 33012KT 9999 BKN014 BKN020 BKN026 15/13 Q1016 0h33min





NOTAMS

OPEN